sensor_id;sensor_type;location;lat;lon;timestamp;temperature;humidity
54461;DHT22;40371;49.414;11.010;2023-02-23T00:01:19;9.20;99.90
54461;DHT22;40371;49.414;11.010;2023-02-23T00:03:47;9.00;99.90
54461;DHT22;40371;49.414;11.010;2023-02-23T00:06:14;9.20;99.90
54461;DHT22;40371;49.414;11.010;2023-02-23T00:08:41;9.40;99.90
54461;DHT22;40371;49.414;11.010;2023-02-23T00:11:09;9.50;99.90
54461;DHT22;40371;49.414;11.010;2023-02-23T00:13:38;9.30;99.90
54461;DHT22;40371;49.414;11.010;2023-02-23T00:16:08;9.30;99.90
54461;DHT22;40371;49.414;11.010;2023-02-23T00:18:36;9.10;99.90
54461;DHT22;40371;49.414;11.010;2023-02-23T00:21:14;9.10;99.90
54461;DHT22;40371;49.414;11.010;2023-02-23T00:23:51;8.90;99.90
54461;DHT22;40371;49.414;11.010;2023-02-23T00:26:19;8.70;99.90
54461;DHT22;40371;49.414;11.010;2023-02-23T00:28:52;8.60;99.90
54461;DHT22;40371;49.414;11.010;2023-02-23T00:31:20;8.90;99.90
54461;DHT22;40371;49.414;11.010;2023-02-23T00:33:51;9.00;99.90
54461;DHT22;40371;49.414;11.010;2023-02-23T00:36:20;9.00;99.90
54461;DHT22;40371;49.414;11.010;2023-02-23T00:38:46;9.20;99.90
54461;DHT22;40371;49.414;11.010;2023-02-23T00:41:13;9.10;99.90
54461;DHT22;40371;49.414;11.010;2023-02-23T00:43:44;9.30;99.90
54461;DHT22;40371;49.414;11.010;2023-02-23T00:46:18;9.20;99.90
54461;DHT22;40371;49.414;11.010;2023-02-23T00:48:47;9.10;99.90
54461;DHT22;40371;49.414;11.010;2023-02-23T00:51:13;9.10;99.90
54461;DHT22;40371;49.414;11.010;2023-02-23T00:53:40;9.00;99.90
54461;DHT22;40371;49.414;11.010;2023-02-23T00:56:07;8.80;99.90
54461;DHT22;40371;49.414;11.010;2023-02-23T00:58:36;8.80;99.90
54461;DHT22;40371;49.414;11.010;2023-02-23T01:01:05;8.80;99.90
54461;DHT22;40371;49.414;11.010;2023-02-23T01:03:31;8.80;99.90
54461;DHT22;40371;49.414;11.010;2023-02-23T01:06:01;9.10;99.90
54461;DHT22;40371;49.414;11.010;2023-02-23T01:08:35;9.10;99.90
54461;DHT22;40371;49.414;11.010;2023-02-23T01:11:08;9.30;99.90
54461;DHT22;40371;49.414;11.010;2023-02-23T01:13:35;9.20;99.90
54461;DHT22;40371;49.414;11.010;2023-02-23T01:16:11;9.30;99.90
54461;DHT22;40371;49.414;11.010;2023-02-23T01:18:39;9.30;99.90
54461;DHT22;40371;49.414;11.010;2023-02-23T01:21:12;9.10;99.90
54461;DHT22;40371;49.414;11.010;2023-02-23T01:23:38;8.80;99.90
54461;DHT22;40371;49.414;11.010;2023-02-23T01:26:05;8.60;99.90
54461;DHT22;40371;49.414;11.010;2023-02-23T01:28:30;8.60;99.90
54461;DHT22;40371;49.414;11.010;2023-02-23T01:30:56;8.50;99.90
54461;DHT22;40371;49.414;11.010;2023-02-23T01:33:21;8.50;99.90
54461;DHT22;40371;49.414;11.010;2023-02-23T01:35:59;8.40;99.90
54461;DHT22;40371;49.414;11.010;2023-02-23T01:38:25;8.40;99.90
54461;DHT22;40371;49.414;11.010;2023-02-23T01:40:51;8.50;99.90
54461;DHT22;40371;49.414;11.010;2023-02-23T01:43:19;8.70;99.90
54461;DHT22;40371;49.414;11.010;2023-02-23T01:45:55;8.70;99.90
54461;DHT22;40371;49.414;11.010;2023-02-23T01:48:29;8.80;99.90
54461;DHT22;40371;49.414;11.010;2023-02-23T01:51:09;8.90;99.90
54461;DHT22;40371;49.414;11.010;2023-02-23T01:53:41;8.90;99.90
54461;DHT22;40371;49.414;11.010;2023-02-23T01:56:12;8.90;99.90
54461;DHT22;40371;49.414;11.010;2023-02-23T01:58:45;8.60;99.90
54461;DHT22;40371;49.414;11.010;2023-02-23T02:01:12;8.20;99.90
54461;DHT22;40371;49.414;11.010;2023-02-23T02:03:45;8.40;99.90
54461;DHT22;40371;49.414;11.010;2023-02-23T02:06:16;8.40;99.90
54461;DHT22;40371;49.414;11.010;2023-02-23T02:08:47;8.50;99.90
54461;DHT22;40371;49.414;11.010;2023-02-23T02:11:16;8.30;99.90
54461;DHT22;40371;49.414;11.010;2023-02-23T02:25:18;8.60;99.90
54461;DHT22;40371;49.414;11.010;2023-02-23T02:27:56;8.30;99.90
54461;DHT22;40371;49.414;11.010;2023-02-23T02:31:02;8.30;99.90
54461;DHT22;40371;49.414;11.010;2023-02-23T02:33:44;8.40;99.90
54461;DHT22;40371;49.414;11.010;2023-02-23T02:44:44;8.00;99.90
54461;DHT22;40371;49.414;11.010;2023-02-23T02:48:14;7.70;99.90
54461;DHT22;40371;49.414;11.010;2023-02-23T02:50:58;7.60;99.90
54461;DHT22;40371;49.414;11.010;2023-02-23T02:53:38;7.60;99.90
54461;DHT22;40371;49.414;11.010;2023-02-23T02:56:06;7.80;99.90
54461;DHT22;40371;49.414;11.010;2023-02-23T02:58:36;7.90;99.90
54461;DHT22;40371;49.414;11.010;2023-02-23T03:01:10;7.80;99.90
54461;DHT22;40371;49.414;11.010;2023-02-23T03:03:55;7.80;99.90
54461;DHT22;40371;49.414;11.010;2023-02-23T03:06:58;7.90;99.90
54461;DHT22;40371;49.414;11.010;2023-02-23T03:09:47;7.90;99.90
54461;DHT22;40371;49.414;11.010;2023-02-23T03:13:16;7.80;99.90
54461;DHT22;40371;49.414;11.010;2023-02-23T03:16:19;7.70;99.90
54461;DHT22;40371;49.414;11.010;2023-02-23T03:19:31;7.90;99.90
54461;DHT22;40371;49.414;11.010;2023-02-23T03:22:31;7.60;99.90
54461;DHT22;40371;49.414;11.010;2023-02-23T03:28:40;7.70;99.90
54461;DHT22;40371;49.414;11.010;2023-02-23T03:31:38;7.70;99.90
54461;DHT22;40371;49.414;11.010;2023-02-23T03:34:36;7.60;99.90
54461;DHT22;40371;49.414;11.010;2023-02-23T03:37:38;7.60;99.90
54461;DHT22;40371;49.414;11.010;2023-02-23T03:40:38;7.60;99.90
54461;DHT22;40371;49.414;11.010;2023-02-23T03:43:31;7.50;99.90
54461;DHT22;40371;49.414;11.010;2023-02-23T03:46:17;7.60;99.90
54461;DHT22;40371;49.414;11.010;2023-02-23T03:49:06;7.70;99.90
54461;DHT22;40371;49.414;11.010;2023-02-23T03:51:58;7.80;99.90
54461;DHT22;40371;49.414;11.010;2023-02-23T03:54:51;7.80;99.90
54461;DHT22;40371;49.414;11.010;2023-02-23T03:57:39;7.90;99.90
54461;DHT22;40371;49.414;11.010;2023-02-23T04:00:28;7.90;99.90
54461;DHT22;40371;49.414;11.010;2023-02-23T04:03:15;8.00;99.90
54461;DHT22;40371;49.414;11.010;2023-02-23T04:06:00;8.00;99.90
54461;DHT22;40371;49.414;11.010;2023-02-23T04:08:47;8.10;99.90
54461;DHT22;40371;49.414;11.010;2023-02-23T04:11:48;8.10;99.90
54461;DHT22;40371;49.414;11.010;2023-02-23T04:14:43;8.10;99.90
54461;DHT22;40371;49.414;11.010;2023-02-23T04:17:11;7.80;99.90
54461;DHT22;40371;49.414;11.010;2023-02-23T04:19:37;7.40;99.90
54461;DHT22;40371;49.414;11.010;2023-02-23T04:22:03;7.40;99.90
54461;DHT22;40371;49.414;11.010;2023-02-23T04:24:28;7.30;99.90
54461;DHT22;40371;49.414;11.010;2023-02-23T04:26:54;7.30;99.90
54461;DHT22;40371;49.414;11.010;2023-02-23T04:29:19;7.60;99.90
54461;DHT22;40371;49.414;11.010;2023-02-23T04:31:45;7.70;99.90
54461;DHT22;40371;49.414;11.010;2023-02-23T04:34:11;7.60;99.90
54461;DHT22;40371;49.414;11.010;2023-02-23T04:36:37;7.20;99.90
54461;DHT22;40371;49.414;11.010;2023-02-23T04:39:02;7.00;99.90
54461;DHT22;40371;49.414;11.010;2023-02-23T04:41:28;6.80;99.90
54461;DHT22;40371;49.414;11.010;2023-02-23T04:43:53;7.00;99.90
54461;DHT22;40371;49.414;11.010;2023-02-23T04:46:19;7.30;99.90
54461;DHT22;40371;49.414;11.010;2023-02-23T04:48:44;7.10;99.90
54461;DHT22;40371;49.414;11.010;2023-02-23T04:51:10;7.00;99.90
54461;DHT22;40371;49.414;11.010;2023-02-23T04:53:37;6.80;99.90
54461;DHT22;40371;49.414;11.010;2023-02-23T04:56:02;6.70;99.90
54461;DHT22;40371;49.414;11.010;2023-02-23T04:58:28;6.90;99.90
54461;DHT22;40371;49.414;11.010;2023-02-23T05:00:54;7.10;99.90
54461;DHT22;40371;49.414;11.010;2023-02-23T05:03:19;7.20;99.90
54461;DHT22;40371;49.414;11.010;2023-02-23T05:05:45;7.20;99.90
54461;DHT22;40371;49.414;11.010;2023-02-23T05:08:10;7.30;99.90
54461;DHT22;40371;49.414;11.010;2023-02-23T05:10:36;7.40;99.90
54461;DHT22;40371;49.414;11.010;2023-02-23T05:13:01;7.40;99.90
54461;DHT22;40371;49.414;11.010;2023-02-23T05:15:27;7.40;99.90
54461;DHT22;40371;49.414;11.010;2023-02-23T05:17:53;7.10;99.90
54461;DHT22;40371;49.414;11.010;2023-02-23T05:20:20;6.90;99.90
54461;DHT22;40371;49.414;11.010;2023-02-23T05:22:46;6.80;99.90
54461;DHT22;40371;49.414;11.010;2023-02-23T05:25:12;6.60;99.90
54461;DHT22;40371;49.414;11.010;2023-02-23T05:27:38;6.60;99.90
54461;DHT22;40371;49.414;11.010;2023-02-23T05:30:05;6.50;99.90
54461;DHT22;40371;49.414;11.010;2023-02-23T05:32:32;6.50;99.90
54461;DHT22;40371;49.414;11.010;2023-02-23T05:35:00;6.40;99.90
54461;DHT22;40371;49.414;11.010;2023-02-23T05:37:26;6.60;99.90
54461;DHT22;40371;49.414;11.010;2023-02-23T05:39:52;6.60;99.90
54461;DHT22;40371;49.414;11.010;2023-02-23T05:42:18;6.50;99.90
54461;DHT22;40371;49.414;11.010;2023-02-23T05:44:43;6.40;99.90
54461;DHT22;40371;49.414;11.010;2023-02-23T05:47:09;6.40;99.90
54461;DHT22;40371;49.414;11.010;2023-02-23T05:49:35;6.70;99.90
54461;DHT22;40371;49.414;11.010;2023-02-23T05:52:01;7.00;99.90
54461;DHT22;40371;49.414;11.010;2023-02-23T05:54:26;7.00;99.90
54461;DHT22;40371;49.414;11.010;2023-02-23T05:56:52;7.00;99.90
54461;DHT22;40371;49.414;11.010;2023-02-23T05:59:17;6.90;99.90
54461;DHT22;40371;49.414;11.010;2023-02-23T06:01:43;6.80;99.90
54461;DHT22;40371;49.414;11.010;2023-02-23T06:04:09;6.80;99.90
54461;DHT22;40371;49.414;11.010;2023-02-23T06:06:34;7.00;99.90
54461;DHT22;40371;49.414;11.010;2023-02-23T06:09:01;7.10;99.90
54461;DHT22;40371;49.414;11.010;2023-02-23T06:11:28;6.80;99.90
54461;DHT22;40371;49.414;11.010;2023-02-23T06:13:54;6.70;99.90
54461;DHT22;40371;49.414;11.010;2023-02-23T06:16:19;6.70;99.90
54461;DHT22;40371;49.414;11.010;2023-02-23T06:18:45;6.90;99.90
54461;DHT22;40371;49.414;11.010;2023-02-23T06:21:11;7.10;99.90
54461;DHT22;40371;49.414;11.010;2023-02-23T06:23:37;7.20;99.90
54461;DHT22;40371;49.414;11.010;2023-02-23T06:26:03;7.20;99.90
54461;DHT22;40371;49.414;11.010;2023-02-23T06:28:29;7.00;99.90
54461;DHT22;40371;49.414;11.010;2023-02-23T06:30:55;7.10;99.90
54461;DHT22;40371;49.414;11.010;2023-02-23T06:33:21;7.20;99.90
54461;DHT22;40371;49.414;11.010;2023-02-23T06:35:47;7.00;99.90
54461;DHT22;40371;49.414;11.010;2023-02-23T06:38:12;7.10;99.90
54461;DHT22;40371;49.414;11.010;2023-02-23T06:40:38;7.10;99.90
54461;DHT22;40371;49.414;11.010;2023-02-23T06:43:05;7.30;99.90
54461;DHT22;40371;49.414;11.010;2023-02-23T06:45:31;7.40;99.90
54461;DHT22;40371;49.414;11.010;2023-02-23T06:47:57;7.50;99.90
54461;DHT22;40371;49.414;11.010;2023-02-23T06:50:23;7.40;99.90
54461;DHT22;40371;49.414;11.010;2023-02-23T06:52:49;7.20;99.90
54461;DHT22;40371;49.414;11.010;2023-02-23T06:55:14;7.10;99.90
54461;DHT22;40371;49.414;11.010;2023-02-23T06:57:40;7.10;99.90
54461;DHT22;40371;49.414;11.010;2023-02-23T07:00:07;7.30;99.90
54461;DHT22;40371;49.414;11.010;2023-02-23T07:02:33;7.50;99.90
54461;DHT22;40371;49.414;11.010;2023-02-23T07:05:00;7.70;99.90
54461;DHT22;40371;49.414;11.010;2023-02-23T07:07:26;7.80;99.90
54461;DHT22;40371;49.414;11.010;2023-02-23T07:09:52;7.80;99.90
54461;DHT22;40371;49.414;11.010;2023-02-23T07:12:17;7.90;99.90
54461;DHT22;40371;49.414;11.010;2023-02-23T07:14:43;8.00;99.90
54461;DHT22;40371;49.414;11.010;2023-02-23T07:17:09;8.00;99.90
54461;DHT22;40371;49.414;11.010;2023-02-23T07:19:34;8.00;99.90
54461;DHT22;40371;49.414;11.010;2023-02-23T07:22:00;8.00;99.90
54461;DHT22;40371;49.414;11.010;2023-02-23T07:24:25;8.10;99.90
54461;DHT22;40371;49.414;11.010;2023-02-23T07:26:52;8.20;99.90
54461;DHT22;40371;49.414;11.010;2023-02-23T07:29:18;8.20;99.90
54461;DHT22;40371;49.414;11.010;2023-02-23T07:31:44;8.10;99.90
54461;DHT22;40371;49.414;11.010;2023-02-23T07:34:10;8.20;99.90
54461;DHT22;40371;49.414;11.010;2023-02-23T07:36:36;8.30;99.90
54461;DHT22;40371;49.414;11.010;2023-02-23T07:39:03;8.20;99.90
54461;DHT22;40371;49.414;11.010;2023-02-23T07:41:29;8.10;99.90
54461;DHT22;40371;49.414;11.010;2023-02-23T07:43:55;7.80;99.90
54461;DHT22;40371;49.414;11.010;2023-02-23T07:46:20;7.80;99.90
54461;DHT22;40371;49.414;11.010;2023-02-23T07:48:46;7.80;99.90
54461;DHT22;40371;49.414;11.010;2023-02-23T07:51:13;7.80;99.90
54461;DHT22;40371;49.414;11.010;2023-02-23T07:53:40;8.10;99.90
54461;DHT22;40371;49.414;11.010;2023-02-23T07:56:06;8.20;99.90
54461;DHT22;40371;49.414;11.010;2023-02-23T07:58:34;8.40;99.90
54461;DHT22;40371;49.414;11.010;2023-02-23T08:01:00;8.40;99.90
54461;DHT22;40371;49.414;11.010;2023-02-23T08:03:26;8.30;99.90
54461;DHT22;40371;49.414;11.010;2023-02-23T08:05:52;8.10;99.90
54461;DHT22;40371;49.414;11.010;2023-02-23T08:08:17;8.10;99.90
54461;DHT22;40371;49.414;11.010;2023-02-23T08:10:43;7.90;99.90
54461;DHT22;40371;49.414;11.010;2023-02-23T08:13:09;8.10;99.90
54461;DHT22;40371;49.414;11.010;2023-02-23T08:15:34;8.30;99.90
54461;DHT22;40371;49.414;11.010;2023-02-23T08:18:00;8.00;99.90
54461;DHT22;40371;49.414;11.010;2023-02-23T08:20:25;8.10;99.90
54461;DHT22;40371;49.414;11.010;2023-02-23T08:22:56;8.20;99.90
54461;DHT22;40371;49.414;11.010;2023-02-23T08:25:21;8.50;99.90
54461;DHT22;40371;49.414;11.010;2023-02-23T08:27:48;8.60;99.90
54461;DHT22;40371;49.414;11.010;2023-02-23T08:30:19;8.80;99.90
54461;DHT22;40371;49.414;11.010;2023-02-23T08:32:45;8.90;99.90
54461;DHT22;40371;49.414;11.010;2023-02-23T08:35:11;8.80;99.90
54461;DHT22;40371;49.414;11.010;2023-02-23T08:37:37;8.70;99.90
54461;DHT22;40371;49.414;11.010;2023-02-23T08:40:03;8.50;99.90
54461;DHT22;40371;49.414;11.010;2023-02-23T08:42:29;8.50;99.90
54461;DHT22;40371;49.414;11.010;2023-02-23T08:44:54;8.50;99.90
54461;DHT22;40371;49.414;11.010;2023-02-23T08:47:20;8.60;99.90
54461;DHT22;40371;49.414;11.010;2023-02-23T08:49:50;8.60;99.90
54461;DHT22;40371;49.414;11.010;2023-02-23T08:52:19;8.60;99.90
54461;DHT22;40371;49.414;11.010;2023-02-23T08:54:45;8.70;99.90
54461;DHT22;40371;49.414;11.010;2023-02-23T08:57:10;8.90;99.90
54461;DHT22;40371;49.414;11.010;2023-02-23T08:59:36;8.90;99.90
54461;DHT22;40371;49.414;11.010;2023-02-23T09:02:03;8.90;99.90
54461;DHT22;40371;49.414;11.010;2023-02-23T09:04:31;9.00;99.90
54461;DHT22;40371;49.414;11.010;2023-02-23T09:07:00;8.90;99.90
54461;DHT22;40371;49.414;11.010;2023-02-23T09:09:26;9.20;99.90
54461;DHT22;40371;49.414;11.010;2023-02-23T09:11:51;9.30;99.90
54461;DHT22;40371;49.414;11.010;2023-02-23T09:14:17;9.20;99.90
54461;DHT22;40371;49.414;11.010;2023-02-23T09:16:43;9.20;99.90
54461;DHT22;40371;49.414;11.010;2023-02-23T09:19:09;9.10;99.90
54461;DHT22;40371;49.414;11.010;2023-02-23T09:21:35;9.20;99.90
54461;DHT22;40371;49.414;11.010;2023-02-23T09:24:01;9.40;99.90
54461;DHT22;40371;49.414;11.010;2023-02-23T09:26:26;9.50;99.90
54461;DHT22;40371;49.414;11.010;2023-02-23T09:28:54;9.70;99.90
54461;DHT22;40371;49.414;11.010;2023-02-23T09:31:22;10.10;99.90
54461;DHT22;40371;49.414;11.010;2023-02-23T09:33:48;10.00;99.90
54461;DHT22;40371;49.414;11.010;2023-02-23T09:36:22;9.70;99.90
54461;DHT22;40371;49.414;11.010;2023-02-23T09:38:50;9.60;99.90
54461;DHT22;40371;49.414;11.010;2023-02-23T09:44:02;9.70;99.90
54461;DHT22;40371;49.414;11.010;2023-02-23T09:46:38;10.00;99.90
54461;DHT22;40371;49.414;11.010;2023-02-23T09:49:12;9.90;99.90
54461;DHT22;40371;49.414;11.010;2023-02-23T09:51:43;9.80;99.90
54461;DHT22;40371;49.414;11.010;2023-02-23T09:54:13;9.80;99.90
54461;DHT22;40371;49.414;11.010;2023-02-23T09:56:43;9.80;99.90
54461;DHT22;40371;49.414;11.010;2023-02-23T09:59:14;10.40;99.90
54461;DHT22;40371;49.414;11.010;2023-02-23T10:04:25;10.40;99.90
54461;DHT22;40371;49.414;11.010;2023-02-23T10:12:12;11.10;99.90
54461;DHT22;40371;49.414;11.010;2023-02-23T10:20:05;10.70;99.90
54461;DHT22;40371;49.414;11.010;2023-02-23T10:22:34;10.70;99.90
54461;DHT22;40371;49.414;11.010;2023-02-23T10:25:12;10.60;99.90
54461;DHT22;40371;49.414;11.010;2023-02-23T10:27:41;10.80;99.90
54461;DHT22;40371;49.414;11.010;2023-02-23T10:30:31;11.20;99.90
54461;DHT22;40371;49.414;11.010;2023-02-23T10:33:23;11.20;99.90
54461;DHT22;40371;49.414;11.010;2023-02-23T10:35:57;11.50;99.90
54461;DHT22;40371;49.414;11.010;2023-02-23T10:38:24;11.60;99.90
54461;DHT22;40371;49.414;11.010;2023-02-23T10:40:54;11.10;99.90
54461;DHT22;40371;49.414;11.010;2023-02-23T10:43:20;11.00;99.90
54461;DHT22;40371;49.414;11.010;2023-02-23T10:45:48;11.30;99.90
54461;DHT22;40371;49.414;11.010;2023-02-23T10:48:21;11.50;99.90
54461;DHT22;40371;49.414;11.010;2023-02-23T10:50:49;11.40;99.90
54461;DHT22;40371;49.414;11.010;2023-02-23T10:53:26;11.30;99.90
54461;DHT22;40371;49.414;11.010;2023-02-23T10:56:04;11.50;99.90
54461;DHT22;40371;49.414;11.010;2023-02-23T10:58:39;11.40;99.90
54461;DHT22;40371;49.414;11.010;2023-02-23T11:01:06;11.40;99.90
54461;DHT22;40371;49.414;11.010;2023-02-23T11:03:47;11.30;99.90
54461;DHT22;40371;49.414;11.010;2023-02-23T11:06:28;11.30;99.90
54461;DHT22;40371;49.414;11.010;2023-02-23T11:08:54;11.50;99.90
54461;DHT22;40371;49.414;11.010;2023-02-23T11:11:27;11.40;99.90
54461;DHT22;40371;49.414;11.010;2023-02-23T11:13:55;11.60;99.90
54461;DHT22;40371;49.414;11.010;2023-02-23T11:16:22;11.90;99.90
54461;DHT22;40371;49.414;11.010;2023-02-23T11:18:54;12.10;99.90
54461;DHT22;40371;49.414;11.010;2023-02-23T11:21:24;12.10;99.90
54461;DHT22;40371;49.414;11.010;2023-02-23T11:23:55;12.00;99.90
54461;DHT22;40371;49.414;11.010;2023-02-23T11:26:52;11.80;99.90
54461;DHT22;40371;49.414;11.010;2023-02-23T11:29:30;11.80;99.90
54461;DHT22;40371;49.414;11.010;2023-02-23T11:32:48;12.00;99.90
54461;DHT22;40371;49.414;11.010;2023-02-23T11:35:12;12.30;99.90
54461;DHT22;40371;49.414;11.010;2023-02-23T11:37:38;12.40;99.90
54461;DHT22;40371;49.414;11.010;2023-02-23T11:40:19;12.40;99.90
54461;DHT22;40371;49.414;11.010;2023-02-23T11:45:37;12.50;99.90
54461;DHT22;40371;49.414;11.010;2023-02-23T11:48:03;12.30;99.90
54461;DHT22;40371;49.414;11.010;2023-02-23T11:50:34;12.10;99.90
54461;DHT22;40371;49.414;11.010;2023-02-23T11:53:10;11.90;99.90
54461;DHT22;40371;49.414;11.010;2023-02-23T11:55:37;11.90;99.90
54461;DHT22;40371;49.414;11.010;2023-02-23T11:58:22;11.90;99.90
54461;DHT22;40371;49.414;11.010;2023-02-23T12:00:59;12.10;99.90
54461;DHT22;40371;49.414;11.010;2023-02-23T12:03:28;12.20;99.90
54461;DHT22;40371;49.414;11.010;2023-02-23T12:05:55;12.20;99.90
54461;DHT22;40371;49.414;11.010;2023-02-23T12:11:00;12.70;99.90
54461;DHT22;40371;49.414;11.010;2023-02-23T12:18:51;12.50;99.90
54461;DHT22;40371;49.414;11.010;2023-02-23T12:23:52;12.40;99.90
54461;DHT22;40371;49.414;11.010;2023-02-23T12:26:20;12.30;99.90
54461;DHT22;40371;49.414;11.010;2023-02-23T12:31:29;12.40;99.90
54461;DHT22;40371;49.414;11.010;2023-02-23T12:34:11;12.70;99.90
54461;DHT22;40371;49.414;11.010;2023-02-23T12:36:42;12.80;99.90
54461;DHT22;40371;49.414;11.010;2023-02-23T12:39:32;13.00;99.90
54461;DHT22;40371;49.414;11.010;2023-02-23T12:42:25;13.20;99.90
54461;DHT22;40371;49.414;11.010;2023-02-23T12:45:03;13.10;99.90
54461;DHT22;40371;49.414;11.010;2023-02-23T12:50:17;13.20;99.90
54461;DHT22;40371;49.414;11.010;2023-02-23T12:52:53;13.20;99.90
54461;DHT22;40371;49.414;11.010;2023-02-23T12:58:46;13.00;99.90
54461;DHT22;40371;49.414;11.010;2023-02-23T13:01:34;12.80;99.90
54461;DHT22;40371;49.414;11.010;2023-02-23T13:04:28;12.80;99.90
54461;DHT22;40371;49.414;11.010;2023-02-23T13:07:28;12.90;99.90
54461;DHT22;40371;49.414;11.010;2023-02-23T13:10:14;13.10;99.90
54461;DHT22;40371;49.414;11.010;2023-02-23T13:15:47;13.30;99.90
54461;DHT22;40371;49.414;11.010;2023-02-23T13:24:21;12.60;99.90
54461;DHT22;40371;49.414;11.010;2023-02-23T13:27:01;12.50;99.90
54461;DHT22;40371;49.414;11.010;2023-02-23T13:29:31;12.40;99.90
54461;DHT22;40371;49.414;11.010;2023-02-23T13:31:59;12.30;99.90
54461;DHT22;40371;49.414;11.010;2023-02-23T13:34:29;12.40;99.90
54461;DHT22;40371;49.414;11.010;2023-02-23T13:36:56;12.50;99.90
54461;DHT22;40371;49.414;11.010;2023-02-23T13:50:30;12.60;99.90
54461;DHT22;40371;49.414;11.010;2023-02-23T13:53:01;12.70;99.90
54461;DHT22;40371;49.414;11.010;2023-02-23T13:55:47;12.80;99.90
54461;DHT22;40371;49.414;11.010;2023-02-23T13:58:23;12.90;99.90
54461;DHT22;40371;49.414;11.010;2023-02-23T14:03:31;12.80;99.90
54461;DHT22;40371;49.414;11.010;2023-02-23T14:06:00;12.70;99.90
54461;DHT22;40371;49.414;11.010;2023-02-23T14:08:31;12.60;99.90
54461;DHT22;40371;49.414;11.010;2023-02-23T14:10:59;12.50;99.90
54461;DHT22;40371;49.414;11.010;2023-02-23T14:13:30;12.30;99.90
54461;DHT22;40371;49.414;11.010;2023-02-23T14:21:41;12.00;99.90
54461;DHT22;40371;49.414;11.010;2023-02-23T14:24:17;11.90;99.90
54461;DHT22;40371;49.414;11.010;2023-02-23T14:27:10;12.00;99.90
54461;DHT22;40371;49.414;11.010;2023-02-23T14:29:40;11.90;99.90
54461;DHT22;40371;49.414;11.010;2023-02-23T14:34:49;11.70;99.90
54461;DHT22;40371;49.414;11.010;2023-02-23T14:37:30;11.80;99.90
54461;DHT22;40371;49.414;11.010;2023-02-23T14:40:11;11.80;99.90
54461;DHT22;40371;49.414;11.010;2023-02-23T14:42:39;11.70;99.90
54461;DHT22;40371;49.414;11.010;2023-02-23T14:45:22;11.60;99.90
54461;DHT22;40371;49.414;11.010;2023-02-23T14:47:55;11.70;99.90
54461;DHT22;40371;49.414;11.010;2023-02-23T14:50:25;11.60;99.90
54461;DHT22;40371;49.414;11.010;2023-02-23T14:52:53;11.50;99.90
54461;DHT22;40371;49.414;11.010;2023-02-23T14:55:25;11.50;99.90
54461;DHT22;40371;49.414;11.010;2023-02-23T14:57:51;11.60;99.90
54461;DHT22;40371;49.414;11.010;2023-02-23T15:00:41;11.60;99.90
54461;DHT22;40371;49.414;11.010;2023-02-23T15:03:09;11.60;99.90
54461;DHT22;40371;49.414;11.010;2023-02-23T15:05:46;11.60;99.90
54461;DHT22;40371;49.414;11.010;2023-02-23T15:08:15;11.60;99.90
54461;DHT22;40371;49.414;11.010;2023-02-23T15:10:44;11.60;99.90
54461;DHT22;40371;49.414;11.010;2023-02-23T15:13:26;11.70;99.90
54461;DHT22;40371;49.414;11.010;2023-02-23T15:15:52;11.70;99.90
54461;DHT22;40371;49.414;11.010;2023-02-23T15:21:55;11.60;99.90
54461;DHT22;40371;49.414;11.010;2023-02-23T15:24:25;11.60;99.90
54461;DHT22;40371;49.414;11.010;2023-02-23T15:26:56;11.50;99.90
54461;DHT22;40371;49.414;11.010;2023-02-23T15:29:24;11.50;99.90
54461;DHT22;40371;49.414;11.010;2023-02-23T15:31:52;11.60;99.90
54461;DHT22;40371;49.414;11.010;2023-02-23T15:34:21;11.60;99.90
54461;DHT22;40371;49.414;11.010;2023-02-23T15:36:56;11.70;99.90
54461;DHT22;40371;49.414;11.010;2023-02-23T15:41:59;11.60;99.90
54461;DHT22;40371;49.414;11.010;2023-02-23T15:44:26;11.70;99.90
54461;DHT22;40371;49.414;11.010;2023-02-23T15:46:56;11.70;99.90
54461;DHT22;40371;49.414;11.010;2023-02-23T15:49:27;11.70;99.90
54461;DHT22;40371;49.414;11.010;2023-02-23T15:52:19;11.80;99.90
54461;DHT22;40371;49.414;11.010;2023-02-23T15:55:07;11.80;99.90
54461;DHT22;40371;49.414;11.010;2023-02-23T15:57:45;11.80;99.90
54461;DHT22;40371;49.414;11.010;2023-02-23T16:00:20;11.80;99.90
54461;DHT22;40371;49.414;11.010;2023-02-23T16:02:54;11.80;99.90
54461;DHT22;40371;49.414;11.010;2023-02-23T16:05:22;11.60;99.90
54461;DHT22;40371;49.414;11.010;2023-02-23T16:11:11;11.70;99.90
54461;DHT22;40371;49.414;11.010;2023-02-23T16:13:42;11.60;99.90
54461;DHT22;40371;49.414;11.010;2023-02-23T16:16:09;11.70;99.90
54461;DHT22;40371;49.414;11.010;2023-02-23T16:18:44;11.70;99.90
54461;DHT22;40371;49.414;11.010;2023-02-23T16:21:16;11.60;99.90
54461;DHT22;40371;49.414;11.010;2023-02-23T16:23:45;11.60;99.90
54461;DHT22;40371;49.414;11.010;2023-02-23T16:26:30;11.60;99.90
54461;DHT22;40371;49.414;11.010;2023-02-23T16:29:00;11.50;99.90
54461;DHT22;40371;49.414;11.010;2023-02-23T16:31:47;11.50;99.90
54461;DHT22;40371;49.414;11.010;2023-02-23T16:34:23;11.50;99.90
54461;DHT22;40371;49.414;11.010;2023-02-23T16:36:54;11.40;99.90
54461;DHT22;40371;49.414;11.010;2023-02-23T16:39:20;11.40;99.90
54461;DHT22;40371;49.414;11.010;2023-02-23T16:41:49;11.40;99.90
54461;DHT22;40371;49.414;11.010;2023-02-23T16:44:19;11.30;99.90
54461;DHT22;40371;49.414;11.010;2023-02-23T16:49:26;11.30;99.90
54461;DHT22;40371;49.414;11.010;2023-02-23T16:51:55;11.30;99.90
54461;DHT22;40371;49.414;11.010;2023-02-23T16:54:21;11.30;99.90
54461;DHT22;40371;49.414;11.010;2023-02-23T16:56:47;11.20;99.90
54461;DHT22;40371;49.414;11.010;2023-02-23T16:59:16;11.20;99.90
54461;DHT22;40371;49.414;11.010;2023-02-23T17:01:42;11.20;99.90
54461;DHT22;40371;49.414;11.010;2023-02-23T17:04:12;11.20;99.90
54461;DHT22;40371;49.414;11.010;2023-02-23T17:06:40;11.20;99.90
54461;DHT22;40371;49.414;11.010;2023-02-23T17:09:11;11.10;99.90
54461;DHT22;40371;49.414;11.010;2023-02-23T17:11:38;11.10;99.90
54461;DHT22;40371;49.414;11.010;2023-02-23T17:14:04;11.10;99.90
54461;DHT22;40371;49.414;11.010;2023-02-23T17:16:30;11.00;99.90
54461;DHT22;40371;49.414;11.010;2023-02-23T17:18:55;11.00;99.90
54461;DHT22;40371;49.414;11.010;2023-02-23T17:21:24;11.00;99.90
54461;DHT22;40371;49.414;11.010;2023-02-23T17:23:50;11.10;99.90
54461;DHT22;40371;49.414;11.010;2023-02-23T17:26:19;11.00;99.90
54461;DHT22;40371;49.414;11.010;2023-02-23T17:28:46;11.00;99.90
54461;DHT22;40371;49.414;11.010;2023-02-23T17:31:13;11.00;99.90
54461;DHT22;40371;49.414;11.010;2023-02-23T17:33:40;11.00;99.90
54461;DHT22;40371;49.414;11.010;2023-02-23T17:36:11;10.90;99.90
54461;DHT22;40371;49.414;11.010;2023-02-23T17:38:37;10.90;99.90